Dudley, Georgia
Current Conditions -  °F | °C
As of 12:55 PM on Saturday 25 Oct 2014 (Local Time) from KDBN Reporting Station
Clear Clear  
Wind Chill: 72°   Ceiling: Unl
Heat Index: 72°   Visibility: 10mi
Dew Point: 45°   Wind: 3mph
Humidity: 38%   Direction: 120°ESE
Pressure: 30.06"   Gusts: NA
Location:  32.54°N, 83.07°W
Report Text: KDBN 251655Z AUTO 12003KT 10SM CLR 22/07 A3006 RMK AO2
Loading
Personal Weather Stations






























Interactive Weather Map
Tropical Storm Tracking
New forecast layout! Learn more

10-Day Weather Forecast

Advertisements
Track Severe Weather on mobile